createdAt,value
2023-03-28T00:00:48.752Z,4.18
2023-03-28T00:03:18.855Z,3.65
2023-03-28T00:05:48.995Z,3.67
2023-03-28T00:08:16.973Z,3.72
2023-03-28T00:10:44.266Z,3.42
2023-03-28T00:13:13.993Z,3.55
2023-03-28T00:15:41.879Z,3.58
2023-03-28T00:18:11.632Z,3.95
2023-03-28T00:20:39.632Z,3.53
2023-03-28T00:23:08.118Z,3.20
2023-03-28T00:25:35.708Z,3.58
2023-03-28T00:28:03.420Z,3.10
2023-03-28T00:30:30.842Z,3.38
2023-03-28T00:32:58.652Z,3.67
2023-03-28T00:35:25.840Z,3.55
2023-03-28T00:37:53.695Z,3.05
2023-03-28T00:40:21.886Z,3.15
2023-03-28T00:42:48.957Z,4.07
2023-03-28T00:45:16.080Z,3.72
2023-03-28T00:47:58.869Z,3.60
2023-03-28T00:50:27.408Z,3.38
2023-03-28T00:52:54.482Z,3.60
2023-03-28T00:55:26.068Z,3.95
2023-03-28T00:57:53.185Z,3.42
2023-03-28T01:00:21.031Z,3.30
2023-03-28T01:02:52.335Z,3.90
2023-03-28T01:05:27.245Z,3.40
2023-03-28T01:07:56.453Z,3.42
2023-03-28T01:10:23.511Z,3.53
2023-03-28T01:12:50.596Z,3.60
2023-03-28T01:15:17.874Z,3.83
2023-03-28T01:17:46.435Z,3.58
2023-03-28T01:20:29.359Z,3.60
2023-03-28T01:23:04.978Z,4.03
2023-03-28T01:25:41.473Z,3.63
2023-03-28T01:28:08.743Z,3.58
2023-03-28T01:30:41.525Z,3.30
2023-03-28T01:33:11.452Z,3.10
2023-03-28T01:35:46.416Z,3.42
2023-03-28T01:38:22.756Z,3.30
2023-03-28T01:40:52.548Z,3.33
2023-03-28T01:43:19.623Z,3.22
2023-03-28T01:45:50.507Z,2.83
2023-03-28T01:48:20.779Z,3.45
2023-03-28T01:50:52.701Z,3.53
2023-03-28T01:53:22.141Z,3.38
2023-03-28T01:55:55.319Z,3.72
2023-03-28T01:58:29.369Z,4.90
2023-03-28T02:01:16.725Z,3.40
2023-03-28T02:03:45.654Z,4.32
2023-03-28T02:06:12.739Z,4.38
2023-03-28T02:08:40.312Z,4.43
2023-03-28T02:11:07.455Z,3.53
2023-03-28T02:13:35.322Z,4.00
2023-03-28T02:16:02.980Z,3.70
2023-03-28T02:18:31.616Z,4.30
2023-03-28T02:21:00.324Z,4.30
2023-03-28T02:23:29.116Z,4.22
2023-03-28T02:25:56.353Z,3.72
2023-03-28T02:28:23.769Z,4.70
2023-03-28T02:30:51.719Z,3.78
2023-03-28T02:33:33.606Z,3.83
2023-03-28T02:36:04.009Z,3.58
2023-03-28T02:38:34.201Z,3.67
2023-03-28T02:41:19.410Z,4.88
2023-03-28T02:43:49.180Z,4.50
2023-03-28T02:46:19.858Z,4.18
2023-03-28T02:49:06.052Z,4.57
2023-03-28T02:51:50.677Z,4.25
2023-03-28T02:54:25.848Z,4.13
2023-03-28T02:57:01.867Z,4.10
2023-03-28T02:59:33.988Z,4.30
2023-03-28T03:02:01.122Z,4.28
2023-03-28T03:04:28.181Z,4.20
2023-03-28T03:06:55.292Z,4.10
2023-03-28T03:09:23.045Z,4.97
2023-03-28T03:11:50.219Z,4.03
2023-03-28T03:14:17.344Z,4.60
2023-03-28T03:16:44.475Z,4.53
2023-03-28T03:19:11.935Z,4.78
2023-03-28T03:21:39.000Z,4.97
2023-03-28T03:24:06.264Z,5.10
2023-03-28T03:26:33.309Z,5.18
2023-03-28T03:29:00.913Z,5.45
2023-03-28T03:31:28.109Z,5.47
2023-03-28T03:33:55.402Z,5.72
2023-03-28T03:36:22.455Z,6.35
2023-03-28T03:38:49.504Z,6.13
2023-03-28T03:41:16.560Z,5.88
2023-03-28T03:43:45.228Z,5.63
2023-03-28T03:46:13.716Z,5.32
2023-03-28T03:48:49.384Z,5.22
2023-03-28T03:51:17.535Z,5.20
2023-03-28T03:53:45.011Z,5.88
2023-03-28T03:56:12.100Z,5.57
2023-03-28T03:58:39.172Z,7.32
2023-03-28T04:01:06.373Z,7.40
2023-03-28T04:03:34.331Z,6.45
2023-03-28T04:06:02.036Z,6.88
2023-03-28T04:08:29.360Z,6.68
2023-03-28T04:10:56.412Z,7.40
2023-03-28T04:13:23.416Z,8.07
2023-03-28T04:15:50.583Z,7.20
2023-03-28T04:18:20.337Z,8.07
2023-03-28T04:20:49.536Z,7.85
2023-03-28T04:23:18.485Z,7.85
2023-03-28T04:25:45.562Z,8.18
2023-03-28T04:28:12.883Z,8.52
2023-03-28T04:30:41.609Z,8.27
2023-03-28T04:33:08.776Z,8.02
2023-03-28T04:35:35.844Z,8.18
2023-03-28T04:38:03.089Z,12.32
2023-03-28T04:40:30.157Z,8.70
2023-03-28T04:42:57.283Z,9.05
2023-03-28T04:45:26.416Z,9.48
2023-03-28T04:47:53.883Z,9.38
2023-03-28T04:50:21.017Z,9.90
2023-03-28T04:52:48.053Z,10.18
2023-03-28T04:55:16.094Z,10.07
2023-03-28T04:57:43.270Z,10.68
2023-03-28T05:00:12.895Z,9.77
2023-03-28T05:02:40.290Z,8.73
2023-03-28T05:05:07.621Z,9.70
2023-03-28T05:07:35.196Z,9.82
2023-03-28T05:10:02.298Z,9.77
2023-03-28T05:12:29.355Z,10.02
2023-03-28T05:14:56.436Z,10.88
2023-03-28T05:17:24.630Z,11.05
2023-03-28T05:19:51.704Z,10.77
2023-03-28T05:22:19.040Z,11.05
2023-03-28T05:24:46.086Z,10.43
2023-03-28T05:27:13.208Z,11.65
2023-03-28T05:29:40.268Z,12.35
2023-03-28T05:32:07.614Z,12.18
2023-03-28T05:34:36.091Z,12.18
2023-03-28T05:37:03.158Z,12.68
2023-03-28T05:39:30.185Z,11.65
2023-03-28T05:41:57.304Z,13.60
2023-03-28T05:44:24.392Z,12.80
2023-03-28T05:46:51.467Z,12.50
2023-03-28T05:49:18.591Z,13.40
2023-03-28T05:51:45.671Z,13.32
2023-03-28T05:54:13.001Z,13.48
2023-03-28T05:56:40.119Z,12.55
2023-03-28T05:59:07.252Z,13.18
2023-03-28T06:01:34.876Z,12.93
2023-03-28T06:04:01.966Z,12.93
2023-03-28T06:06:29.054Z,13.45
2023-03-28T06:08:56.090Z,12.73
2023-03-28T06:11:23.111Z,12.82
2023-03-28T06:13:50.348Z,13.57
2023-03-28T06:16:17.486Z,16.70
2023-03-28T06:18:44.581Z,12.77
2023-03-28T06:21:11.623Z,13.70
2023-03-28T06:23:39.482Z,14.68
2023-03-28T06:26:06.699Z,12.68
2023-03-28T06:28:33.782Z,12.05
2023-03-28T06:31:01.472Z,12.18
2023-03-28T06:33:28.686Z,13.00
2023-03-28T06:35:55.884Z,11.82
2023-03-28T06:38:26.314Z,11.05
2023-03-28T06:40:53.378Z,11.80
2023-03-28T06:43:20.581Z,10.88
2023-03-28T06:45:47.652Z,9.80
2023-03-28T06:48:14.705Z,10.40
2023-03-28T06:50:41.833Z,9.52
2023-03-28T06:53:08.992Z,9.25
2023-03-28T06:55:36.144Z,9.23
2023-03-28T06:58:03.247Z,8.90
2023-03-28T07:00:30.312Z,9.63
2023-03-28T07:02:57.430Z,8.48
2023-03-28T07:05:24.550Z,8.43
2023-03-28T07:07:52.739Z,8.13
2023-03-28T07:10:19.820Z,7.63
2023-03-28T07:12:46.840Z,8.52
2023-03-28T07:15:13.959Z,7.53
2023-03-28T07:17:41.203Z,8.38
2023-03-28T07:20:08.467Z,7.35
2023-03-28T07:22:35.711Z,7.90
2023-03-28T07:25:02.817Z,7.10
2023-03-28T07:27:29.816Z,7.18
2023-03-28T07:29:56.871Z,5.90
2023-03-28T07:32:24.047Z,6.28
2023-03-28T07:34:51.362Z,6.40
2023-03-28T07:37:18.398Z,5.97
2023-03-28T07:39:45.784Z,5.47
2023-03-28T07:42:13.226Z,5.40
2023-03-28T07:44:42.195Z,5.55
2023-03-28T07:47:09.908Z,5.78
2023-03-28T07:49:37.064Z,6.22
2023-03-28T07:52:04.447Z,5.10
2023-03-28T07:54:33.153Z,5.03
2023-03-28T07:57:00.615Z,4.90
2023-03-28T07:59:27.706Z,4.85
2023-03-28T08:01:54.791Z,4.82
2023-03-28T08:04:21.820Z,4.70
2023-03-28T08:06:48.897Z,3.97
2023-03-28T08:09:16.832Z,4.28
2023-03-28T08:11:44.099Z,4.10
2023-03-28T08:14:12.143Z,4.40
2023-03-28T08:16:39.299Z,4.03
2023-03-28T08:19:11.159Z,4.15
2023-03-28T08:21:39.039Z,4.20
2023-03-28T08:24:07.669Z,4.70
2023-03-28T08:26:34.948Z,5.07
2023-03-28T08:29:02.221Z,4.18
2023-03-28T08:31:29.397Z,4.13
2023-03-28T08:33:56.568Z,3.95
2023-03-28T08:36:24.328Z,4.57
2023-03-28T08:38:51.481Z,4.35
2023-03-28T08:41:18.599Z,4.38
2023-03-28T08:43:50.993Z,3.42
2023-03-28T08:46:18.638Z,3.65
2023-03-28T08:48:45.948Z,3.65
2023-03-28T08:51:31.632Z,4.03
2023-03-28T08:54:05.067Z,3.25
2023-03-28T08:56:32.401Z,3.70
2023-03-28T08:59:04.704Z,3.72
2023-03-28T09:01:32.773Z,3.55
2023-03-28T09:04:00.765Z,3.08
2023-03-28T09:06:46.132Z,3.50
2023-03-28T09:09:25.534Z,3.40
2023-03-28T09:12:07.652Z,3.30
2023-03-28T09:14:53.204Z,3.45
2023-03-28T09:17:39.087Z,2.85
2023-03-28T09:20:11.350Z,3.53
2023-03-28T09:22:52.955Z,3.42
2023-03-28T09:25:22.508Z,2.80
2023-03-28T09:27:52.600Z,2.90
2023-03-28T09:30:22.737Z,2.88
2023-03-28T09:32:49.930Z,2.53
2023-03-28T09:35:21.322Z,2.63
2023-03-28T09:37:51.672Z,3.10
2023-03-28T09:40:20.915Z,3.17
2023-03-28T09:42:51.105Z,3.22
2023-03-28T09:45:27.118Z,2.65
2023-03-28T09:47:54.262Z,3.40
2023-03-28T09:50:21.763Z,3.15
2023-03-28T09:52:49.482Z,2.40
2023-03-28T09:55:23.299Z,3.45
2023-03-28T09:58:02.650Z,2.53
2023-03-28T10:00:29.851Z,2.25
2023-03-28T10:02:56.947Z,2.50
2023-03-28T10:05:38.300Z,2.15
2023-03-28T10:08:24.197Z,2.05
2023-03-28T10:10:58.351Z,2.70
2023-03-28T10:13:26.243Z,2.53
2023-03-28T10:15:53.684Z,2.35
2023-03-28T10:18:21.083Z,2.03
2023-03-28T10:20:50.621Z,2.35
2023-03-28T10:23:17.676Z,2.58
2023-03-28T10:25:45.891Z,2.47
2023-03-28T10:28:14.894Z,2.55
2023-03-28T10:30:42.342Z,2.45
2023-03-28T10:33:10.561Z,2.22
2023-03-28T10:35:41.375Z,2.00
2023-03-28T10:38:15.272Z,1.85
2023-03-28T10:40:42.429Z,1.55
2023-03-28T10:43:13.002Z,1.50
2023-03-28T10:48:10.418Z,1.75
2023-03-28T10:50:38.896Z,1.80
2023-03-28T10:53:21.329Z,1.50
2023-03-28T10:55:54.304Z,1.90
2023-03-28T10:58:21.912Z,1.77
2023-03-28T11:00:52.838Z,1.67
2023-03-28T11:03:39.148Z,1.70
2023-03-28T11:06:10.251Z,1.83
2023-03-28T11:08:40.311Z,1.80
2023-03-28T11:11:36.109Z,1.42
2023-03-28T11:14:12.982Z,1.58
2023-03-28T11:16:49.227Z,1.92
2023-03-28T11:19:18.826Z,1.50
2023-03-28T11:21:52.321Z,1.90
2023-03-28T11:24:54.707Z,1.60
2023-03-28T11:27:40.392Z,1.42
2023-03-28T11:30:08.325Z,1.27
2023-03-28T11:32:38.539Z,1.20
2023-03-28T11:35:16.466Z,1.30
2023-03-28T11:37:43.541Z,1.70
2023-03-28T11:40:16.317Z,1.90
2023-03-28T11:42:48.026Z,1.50
2023-03-28T11:45:30.879Z,1.25
2023-03-28T11:48:09.390Z,1.00
2023-03-28T11:50:46.609Z,1.20
2023-03-28T11:53:15.361Z,1.48
2023-03-28T11:55:45.747Z,1.38
2023-03-28T11:58:18.419Z,1.50
2023-03-28T12:01:04.654Z,1.20
2023-03-28T12:03:38.809Z,1.40
2023-03-28T12:06:27.032Z,1.13
2023-03-28T12:08:54.159Z,1.30
2023-03-28T12:11:23.433Z,1.08
2023-03-28T12:14:11.080Z,1.20
2023-03-28T12:16:42.260Z,1.00
2023-03-28T12:19:11.071Z,1.02
2023-03-28T12:21:38.684Z,1.17
2023-03-28T12:24:14.445Z,1.20
2023-03-28T12:27:00.552Z,1.20
2023-03-28T12:29:30.847Z,1.08
2023-03-28T12:32:00.203Z,1.58
2023-03-28T12:34:32.540Z,1.30
2023-03-28T12:37:06.225Z,1.05
2023-03-28T12:39:42.435Z,1.20
2023-03-28T12:42:10.292Z,1.13
2023-03-28T12:44:45.315Z,1.15
2023-03-28T12:47:13.960Z,1.20
2023-03-28T12:49:52.938Z,0.90
2023-03-28T12:52:21.509Z,1.25
2023-03-28T12:54:54.840Z,1.48
2023-03-28T12:57:43.837Z,1.13
2023-03-28T13:00:26.614Z,0.73
2023-03-28T13:03:03.434Z,1.08
2023-03-28T13:05:32.419Z,1.40
2023-03-28T13:08:07.392Z,1.20
2023-03-28T13:10:42.234Z,1.30
2023-03-28T13:13:12.370Z,1.58
2023-03-28T13:15:58.809Z,1.50
2023-03-28T13:18:26.413Z,1.58
2023-03-28T13:20:53.571Z,1.70
2023-03-28T13:23:24.946Z,1.40
2023-03-28T13:25:55.639Z,1.40
2023-03-28T13:28:29.907Z,1.25
2023-03-28T13:31:07.486Z,1.90
2023-03-28T13:33:35.294Z,1.80
2023-03-28T13:36:02.653Z,1.50
2023-03-28T13:38:29.999Z,1.25
2023-03-28T13:41:07.011Z,1.58
2023-03-28T13:43:34.120Z,1.00
2023-03-28T13:46:03.251Z,1.67
2023-03-28T13:48:34.325Z,1.40
2023-03-28T13:51:02.157Z,1.38
2023-03-28T13:53:46.349Z,1.30
2023-03-28T13:56:18.804Z,1.40
2023-03-28T13:58:47.327Z,1.67
2023-03-28T14:01:16.196Z,1.60
2023-03-28T14:03:45.300Z,1.30
2023-03-28T14:06:22.397Z,1.10
2023-03-28T14:08:50.354Z,1.60
2023-03-28T14:11:18.387Z,1.40
2023-03-28T14:13:45.949Z,1.88
2023-03-28T14:16:13.169Z,1.70
2023-03-28T14:18:44.543Z,1.55
2023-03-28T14:21:11.618Z,1.35
2023-03-28T14:23:39.593Z,1.38
2023-03-28T14:26:14.287Z,1.83
2023-03-28T14:28:41.641Z,1.35
2023-03-28T14:31:15.509Z,1.70
2023-03-28T14:33:47.593Z,1.10
2023-03-28T14:36:16.397Z,1.20
2023-03-28T14:38:43.466Z,1.23
2023-03-28T14:41:15.049Z,1.15
2023-03-28T14:43:42.074Z,1.27
2023-03-28T14:46:09.810Z,1.20
2023-03-28T14:48:37.111Z,1.42
2023-03-28T14:51:05.880Z,1.13
2023-03-28T14:53:37.595Z,1.33
2023-03-28T14:56:08.860Z,1.00
2023-03-28T14:58:36.376Z,1.08
2023-03-28T15:01:04.593Z,1.17
2023-03-28T15:03:41.940Z,0.90
2023-03-28T15:06:09.439Z,0.90
2023-03-28T15:08:38.075Z,1.23
2023-03-28T15:11:06.470Z,2.10
2023-03-28T15:13:34.217Z,1.27
2023-03-28T15:16:01.723Z,1.00
2023-03-28T15:18:29.903Z,1.02
2023-03-28T15:20:57.960Z,1.08
2023-03-28T15:23:29.345Z,1.13
2023-03-28T15:25:56.628Z,1.30
2023-03-28T15:28:23.684Z,1.35
2023-03-28T15:30:50.759Z,1.40
2023-03-28T15:33:19.318Z,1.70
2023-03-28T15:35:46.776Z,1.38
2023-03-28T15:38:13.851Z,1.38
2023-03-28T15:40:41.914Z,2.50
2023-03-28T15:43:09.566Z,1.60
2023-03-28T15:45:38.819Z,1.60
2023-03-28T15:48:06.094Z,1.27
2023-03-28T15:50:34.718Z,1.83
2023-03-28T15:53:03.134Z,1.38
2023-03-28T15:55:30.263Z,1.45
2023-03-28T15:57:57.423Z,1.30
2023-03-28T16:00:38.365Z,1.38
2023-03-28T16:03:19.702Z,1.30
2023-03-28T16:05:50.539Z,1.48
2023-03-28T16:08:24.028Z,1.48
2023-03-28T16:10:51.116Z,1.48
2023-03-28T16:13:18.658Z,2.00
2023-03-28T16:15:45.867Z,1.80
2023-03-28T16:18:13.014Z,1.90
2023-03-28T16:20:40.381Z,1.65
2023-03-28T16:23:07.963Z,1.73
2023-03-28T16:25:35.165Z,1.65
2023-03-28T16:28:02.198Z,1.60
2023-03-28T16:30:30.756Z,1.40
2023-03-28T16:32:57.960Z,1.55
2023-03-28T16:35:27.060Z,1.77
2023-03-28T16:37:54.167Z,1.77
2023-03-28T16:40:21.654Z,2.10
2023-03-28T16:42:48.704Z,3.50
2023-03-28T16:45:16.099Z,1.77
2023-03-28T16:47:43.287Z,2.10
2023-03-28T16:50:10.460Z,1.70
2023-03-28T16:52:40.535Z,1.33
2023-03-28T16:55:08.433Z,1.88
2023-03-28T16:57:35.556Z,1.85
2023-03-28T17:00:04.505Z,1.73
2023-03-28T17:02:31.913Z,2.03
2023-03-28T17:04:59.051Z,1.88
2023-03-28T17:07:26.102Z,1.92
2023-03-28T17:09:53.167Z,1.38
2023-03-28T17:12:21.211Z,1.70
2023-03-28T17:14:48.369Z,1.85
2023-03-28T17:17:15.576Z,1.70
2023-03-28T17:19:43.151Z,1.80
2023-03-28T17:22:10.283Z,1.65
2023-03-28T17:24:38.270Z,1.60
2023-03-28T17:27:05.386Z,1.60
2023-03-28T17:29:32.664Z,1.48
2023-03-28T17:31:59.751Z,2.00
2023-03-28T17:34:26.994Z,2.00
2023-03-28T17:36:54.149Z,1.90
2023-03-28T17:39:22.084Z,2.30
2023-03-28T17:41:49.175Z,2.40
2023-03-28T17:44:16.637Z,3.33
2023-03-28T17:46:44.588Z,1.85
2023-03-28T17:49:11.702Z,2.17
2023-03-28T17:51:39.275Z,1.80
2023-03-28T17:54:11.964Z,2.00
2023-03-28T17:56:39.716Z,2.33
2023-03-28T17:59:07.399Z,1.90
2023-03-28T18:01:34.554Z,1.67
2023-03-28T18:04:01.803Z,1.63
2023-03-28T18:06:28.978Z,1.88
2023-03-28T18:08:56.065Z,1.70
2023-03-28T18:11:23.191Z,1.63
2023-03-28T18:13:52.613Z,2.10
2023-03-28T18:16:19.774Z,1.98
2023-03-28T18:18:47.192Z,1.92
2023-03-28T18:21:14.260Z,2.05
2023-03-28T18:23:41.427Z,2.00
2023-03-28T18:26:09.119Z,2.20
2023-03-28T18:28:36.791Z,2.10
2023-03-28T18:31:11.332Z,1.67
2023-03-28T18:33:38.879Z,2.45
2023-03-28T18:36:06.228Z,2.22
2023-03-28T18:38:37.054Z,1.77
2023-03-28T18:41:04.134Z,2.13
2023-03-28T18:43:31.322Z,2.42
2023-03-28T18:46:00.881Z,1.95
2023-03-28T18:48:29.095Z,3.33
2023-03-28T18:50:58.472Z,2.30
2023-03-28T18:53:27.580Z,2.17
2023-03-28T18:55:54.873Z,1.90
2023-03-28T18:58:26.060Z,2.15
2023-03-28T19:01:00.248Z,2.30
2023-03-28T19:03:27.957Z,2.22
2023-03-28T19:05:56.321Z,2.42
2023-03-28T19:08:26.052Z,2.28
2023-03-28T19:10:53.952Z,2.03
2023-03-28T19:13:21.267Z,2.65
2023-03-28T19:15:48.412Z,4.00
2023-03-28T19:18:15.538Z,2.88
2023-03-28T19:20:42.640Z,2.35
2023-03-28T19:23:09.765Z,2.20
2023-03-28T19:25:36.844Z,2.33
2023-03-28T19:28:03.940Z,2.17
2023-03-28T19:30:31.188Z,2.55
2023-03-28T19:32:58.614Z,2.20
2023-03-28T19:35:25.810Z,2.05
2023-03-28T19:37:52.941Z,2.50
2023-03-28T19:40:20.031Z,2.53
2023-03-28T19:42:47.189Z,2.50
2023-03-28T19:45:14.384Z,2.90
2023-03-28T19:47:41.441Z,2.70
2023-03-28T19:50:11.184Z,3.25
2023-03-28T19:52:39.479Z,3.07
2023-03-28T19:55:07.278Z,3.35
2023-03-28T19:57:34.387Z,2.85
2023-03-28T20:00:01.500Z,3.22
2023-03-28T20:02:28.955Z,3.83
2023-03-28T20:04:56.838Z,4.57
2023-03-28T20:07:24.606Z,4.07
2023-03-28T20:09:51.777Z,4.43
2023-03-28T20:12:19.007Z,3.90
2023-03-28T20:14:46.135Z,3.33
2023-03-28T20:17:13.302Z,2.92
2023-03-28T20:19:40.700Z,3.15
2023-03-28T20:22:07.907Z,2.70
2023-03-28T20:24:34.981Z,2.75
2023-03-28T20:27:02.197Z,2.80
2023-03-28T20:29:29.872Z,4.47
2023-03-28T20:31:57.055Z,2.90
2023-03-28T20:34:24.236Z,2.58
2023-03-28T20:36:51.330Z,2.50
2023-03-28T20:39:18.412Z,2.28
2023-03-28T20:41:45.498Z,2.60
2023-03-28T20:44:19.899Z,2.83
2023-03-28T20:46:48.848Z,2.00
2023-03-28T20:49:17.878Z,2.38
2023-03-28T20:51:44.980Z,2.13
2023-03-28T20:54:12.123Z,2.13
2023-03-28T20:56:39.400Z,2.38
2023-03-28T20:59:06.534Z,2.28
2023-03-28T21:01:39.511Z,2.90
2023-03-28T21:04:07.113Z,2.45
2023-03-28T21:06:35.965Z,2.75
2023-03-28T21:09:04.565Z,2.60
2023-03-28T21:11:32.448Z,2.50
2023-03-28T21:14:00.128Z,2.88
2023-03-28T21:16:27.672Z,2.92
2023-03-28T21:18:54.815Z,2.88
2023-03-28T21:21:22.097Z,2.80
2023-03-28T21:23:49.255Z,2.70
2023-03-28T21:26:17.426Z,2.75
2023-03-28T21:28:44.795Z,2.78
2023-03-28T21:31:16.029Z,2.65
2023-03-28T21:33:43.121Z,2.38
2023-03-28T21:36:14.082Z,2.70
2023-03-28T21:38:41.616Z,2.53
2023-03-28T21:41:08.750Z,2.30
2023-03-28T21:43:36.192Z,2.60
2023-03-28T21:46:03.659Z,2.70
2023-03-28T21:48:31.021Z,2.30
2023-03-28T21:50:59.306Z,2.13
2023-03-28T21:53:27.202Z,2.17
2023-03-28T21:55:56.026Z,2.20
2023-03-28T21:58:23.582Z,2.20
2023-03-28T22:00:50.948Z,2.08
2023-03-28T22:03:18.259Z,2.45
2023-03-28T22:05:45.556Z,2.40
2023-03-28T22:08:12.943Z,2.40
2023-03-28T22:10:47.042Z,2.35
2023-03-28T22:13:14.157Z,2.15
2023-03-28T22:15:41.185Z,2.38
2023-03-28T22:18:09.399Z,2.10
2023-03-28T22:20:36.920Z,2.22
2023-03-28T22:23:04.371Z,2.15
2023-03-28T22:25:34.845Z,2.05
2023-03-28T22:30:29.043Z,2.40
2023-03-28T22:32:56.163Z,2.15
2023-03-28T22:35:23.432Z,2.45
2023-03-28T22:37:50.484Z,2.33
2023-03-28T22:40:18.872Z,2.78
2023-03-28T22:42:46.844Z,2.67
2023-03-28T22:45:15.034Z,2.47
2023-03-28T22:47:42.194Z,2.67
2023-03-28T22:50:11.244Z,2.30
2023-03-28T22:52:38.905Z,2.10
2023-03-28T22:55:06.310Z,2.33
2023-03-28T22:57:33.430Z,2.38
2023-03-28T23:00:01.664Z,2.28
2023-03-28T23:02:29.118Z,2.28
2023-03-28T23:04:57.088Z,2.60
2023-03-28T23:07:24.160Z,2.08
2023-03-28T23:09:51.938Z,1.88
2023-03-28T23:12:18.989Z,2.58
2023-03-28T23:14:46.604Z,2.00
2023-03-28T23:17:16.614Z,2.08
2023-03-28T23:19:43.902Z,1.83
2023-03-28T23:22:10.989Z,2.58
2023-03-28T23:24:38.080Z,2.15
2023-03-28T23:27:07.067Z,2.03
2023-03-28T23:29:34.175Z,2.00
2023-03-28T23:32:01.263Z,1.88
2023-03-28T23:34:28.470Z,2.28
2023-03-28T23:36:57.999Z,2.40
2023-03-28T23:39:25.142Z,2.42
2023-03-28T23:41:52.198Z,2.50
2023-03-28T23:44:19.283Z,2.28
2023-03-28T23:46:49.587Z,2.45
2023-03-28T23:49:17.360Z,3.13
2023-03-28T23:51:44.413Z,2.33
2023-03-28T23:54:12.525Z,2.50
2023-03-28T23:56:39.822Z,2.53
2023-03-28T23:59:06.886Z,2.55
